sensor_id;sensor_type;location;lat;lon;timestamp;P1;durP1;ratioP1;P2;durP2;ratioP2
15094;SDS011;7648;52.264;9.632;2023-03-21T00:03:38;14.53;;;9.57;;
15094;SDS011;7648;52.264;9.632;2023-03-21T00:07:42;12.47;;;10.50;;
15094;SDS011;7648;52.264;9.632;2023-03-21T00:11:44;12.30;;;9.43;;
15094;SDS011;7648;52.264;9.632;2023-03-21T00:15:47;12.83;;;9.83;;
15094;SDS011;7648;52.264;9.632;2023-03-21T00:19:53;14.17;;;9.23;;
15094;SDS011;7648;52.264;9.632;2023-03-21T00:23:55;12.87;;;10.53;;
15094;SDS011;7648;52.264;9.632;2023-03-21T00:27:57;11.37;;;10.17;;
15094;SDS011;7648;52.264;9.632;2023-03-21T00:32:01;12.60;;;9.73;;
15094;SDS011;7648;52.264;9.632;2023-03-21T00:36:03;15.00;;;10.53;;
15094;SDS011;7648;52.264;9.632;2023-03-21T00:40:07;10.07;;;8.33;;
15094;SDS011;7648;52.264;9.632;2023-03-21T00:44:10;13.80;;;9.77;;
15094;SDS011;7648;52.264;9.632;2023-03-21T00:48:16;14.03;;;9.83;;
15094;SDS011;7648;52.264;9.632;2023-03-21T00:52:18;10.80;;;9.53;;
15094;SDS011;7648;52.264;9.632;2023-03-21T00:56:19;11.90;;;10.53;;
15094;SDS011;7648;52.264;9.632;2023-03-21T01:00:22;13.33;;;9.67;;
15094;SDS011;7648;52.264;9.632;2023-03-21T01:04:25;11.53;;;9.47;;
15094;SDS011;7648;52.264;9.632;2023-03-21T01:08:28;13.50;;;10.40;;
15094;SDS011;7648;52.264;9.632;2023-03-21T01:12:31;12.40;;;9.37;;
15094;SDS011;7648;52.264;9.632;2023-03-21T01:16:33;13.67;;;9.70;;
15094;SDS011;7648;52.264;9.632;2023-03-21T01:20:36;13.50;;;9.40;;
15094;SDS011;7648;52.264;9.632;2023-03-21T01:24:40;15.20;;;10.20;;
15094;SDS011;7648;52.264;9.632;2023-03-21T01:28:42;14.00;;;10.27;;
15094;SDS011;7648;52.264;9.632;2023-03-21T01:32:45;13.23;;;10.33;;
15094;SDS011;7648;52.264;9.632;2023-03-21T01:36:48;12.73;;;10.17;;
15094;SDS011;7648;52.264;9.632;2023-03-21T01:40:53;12.20;;;9.97;;
15094;SDS011;7648;52.264;9.632;2023-03-21T01:45:02;13.60;;;10.27;;
15094;SDS011;7648;52.264;9.632;2023-03-21T01:49:26;13.77;;;9.67;;
15094;SDS011;7648;52.264;9.632;2023-03-21T01:53:41;12.67;;;9.80;;
15094;SDS011;7648;52.264;9.632;2023-03-21T01:57:45;11.17;;;9.97;;
15094;SDS011;7648;52.264;9.632;2023-03-21T02:01:54;12.50;;;10.13;;
15094;SDS011;7648;52.264;9.632;2023-03-21T02:06:03;10.70;;;9.60;;
15094;SDS011;7648;52.264;9.632;2023-03-21T02:10:13;11.00;;;9.43;;
15094;SDS011;7648;52.264;9.632;2023-03-21T02:14:21;13.90;;;9.97;;
15094;SDS011;7648;52.264;9.632;2023-03-21T02:18:31;13.17;;;10.10;;
15094;SDS011;7648;52.264;9.632;2023-03-21T02:22:52;11.07;;;9.50;;
15094;SDS011;7648;52.264;9.632;2023-03-21T02:27:16;12.03;;;9.07;;
15094;SDS011;7648;52.264;9.632;2023-03-21T02:31:33;12.97;;;9.27;;
15094;SDS011;7648;52.264;9.632;2023-03-21T02:35:48;10.60;;;9.40;;
15094;SDS011;7648;52.264;9.632;2023-03-21T02:40:06;11.13;;;8.60;;
15094;SDS011;7648;52.264;9.632;2023-03-21T02:44:13;11.50;;;8.43;;
15094;SDS011;7648;52.264;9.632;2023-03-21T02:48:20;13.47;;;9.57;;
15094;SDS011;7648;52.264;9.632;2023-03-21T02:52:28;12.90;;;9.17;;
15094;SDS011;7648;52.264;9.632;2023-03-21T02:56:35;12.67;;;9.17;;
15094;SDS011;7648;52.264;9.632;2023-03-21T03:00:39;10.70;;;9.20;;
15094;SDS011;7648;52.264;9.632;2023-03-21T03:04:45;12.93;;;9.07;;
15094;SDS011;7648;52.264;9.632;2023-03-21T03:08:52;14.60;;;9.10;;
15094;SDS011;7648;52.264;9.632;2023-03-21T03:13:08;15.50;;;8.97;;
15094;SDS011;7648;52.264;9.632;2023-03-21T03:17:21;10.37;;;8.53;;
15094;SDS011;7648;52.264;9.632;2023-03-21T03:21:37;10.30;;;8.17;;
15094;SDS011;7648;52.264;9.632;2023-03-21T03:25:43;9.63;;;8.23;;
15094;SDS011;7648;52.264;9.632;2023-03-21T03:29:51;9.97;;;8.43;;
15094;SDS011;7648;52.264;9.632;2023-03-21T03:34:00;12.17;;;8.57;;
15094;SDS011;7648;52.264;9.632;2023-03-21T03:38:11;10.63;;;8.67;;
15094;SDS011;7648;52.264;9.632;2023-03-21T03:42:14;11.33;;;8.90;;
15094;SDS011;7648;52.264;9.632;2023-03-21T03:46:27;11.50;;;9.33;;
15094;SDS011;7648;52.264;9.632;2023-03-21T03:50:33;12.73;;;9.80;;
15094;SDS011;7648;52.264;9.632;2023-03-21T03:54:44;13.70;;;9.23;;
15094;SDS011;7648;52.264;9.632;2023-03-21T03:58:48;10.63;;;9.30;;
15094;SDS011;7648;52.264;9.632;2023-03-21T04:02:56;13.13;;;9.33;;
15094;SDS011;7648;52.264;9.632;2023-03-21T04:06:59;10.47;;;9.07;;
15094;SDS011;7648;52.264;9.632;2023-03-21T04:11:03;10.00;;;8.93;;
15094;SDS011;7648;52.264;9.632;2023-03-21T04:15:10;9.77;;;8.77;;
15094;SDS011;7648;52.264;9.632;2023-03-21T04:19:19;9.70;;;8.73;;
15094;SDS011;7648;52.264;9.632;2023-03-21T04:23:21;13.20;;;9.77;;
15094;SDS011;7648;52.264;9.632;2023-03-21T04:27:24;10.47;;;8.87;;
15094;SDS011;7648;52.264;9.632;2023-03-21T04:31:39;11.37;;;9.37;;
15094;SDS011;7648;52.264;9.632;2023-03-21T04:35:46;13.97;;;9.43;;
15094;SDS011;7648;52.264;9.632;2023-03-21T04:39:48;13.20;;;9.93;;
15094;SDS011;7648;52.264;9.632;2023-03-21T04:43:51;12.57;;;9.07;;
15094;SDS011;7648;52.264;9.632;2023-03-21T04:47:53;11.00;;;9.23;;
15094;SDS011;7648;52.264;9.632;2023-03-21T04:51:58;9.93;;;8.67;;
15094;SDS011;7648;52.264;9.632;2023-03-21T04:56:00;10.50;;;9.23;;
15094;SDS011;7648;52.264;9.632;2023-03-21T05:00:04;10.20;;;8.93;;
15094;SDS011;7648;52.264;9.632;2023-03-21T05:04:10;13.17;;;8.87;;
15094;SDS011;7648;52.264;9.632;2023-03-21T05:08:15;13.33;;;9.77;;
15094;SDS011;7648;52.264;9.632;2023-03-21T05:12:17;14.80;;;11.30;;
15094;SDS011;7648;52.264;9.632;2023-03-21T05:16:20;17.47;;;10.63;;
15094;SDS011;7648;52.264;9.632;2023-03-21T05:20:26;15.73;;;10.63;;
15094;SDS011;7648;52.264;9.632;2023-03-21T05:24:30;13.80;;;11.00;;
15094;SDS011;7648;52.264;9.632;2023-03-21T05:28:33;15.07;;;11.13;;
15094;SDS011;7648;52.264;9.632;2023-03-21T05:32:37;13.43;;;10.50;;
15094;SDS011;7648;52.264;9.632;2023-03-21T05:36:42;13.37;;;10.90;;
15094;SDS011;7648;52.264;9.632;2023-03-21T05:40:46;14.87;;;12.03;;
15094;SDS011;7648;52.264;9.632;2023-03-21T05:44:50;16.60;;;12.20;;
15094;SDS011;7648;52.264;9.632;2023-03-21T05:48:57;22.27;;;11.93;;
15094;SDS011;7648;52.264;9.632;2023-03-21T05:52:59;17.23;;;11.67;;
15094;SDS011;7648;52.264;9.632;2023-03-21T05:57:03;20.43;;;12.70;;
15094;SDS011;7648;52.264;9.632;2023-03-21T06:01:44;18.33;;;12.27;;
15094;SDS011;7648;52.264;9.632;2023-03-21T06:05:49;16.67;;;11.47;;
15094;SDS011;7648;52.264;9.632;2023-03-21T06:09:56;17.13;;;11.20;;
15094;SDS011;7648;52.264;9.632;2023-03-21T06:14:00;16.93;;;11.43;;
15094;SDS011;7648;52.264;9.632;2023-03-21T06:18:02;17.63;;;11.37;;
15094;SDS011;7648;52.264;9.632;2023-03-21T06:22:05;19.73;;;11.60;;
15094;SDS011;7648;52.264;9.632;2023-03-21T06:26:10;14.27;;;10.87;;
15094;SDS011;7648;52.264;9.632;2023-03-21T06:30:14;16.57;;;11.80;;
15094;SDS011;7648;52.264;9.632;2023-03-21T06:34:33;14.60;;;10.67;;
15094;SDS011;7648;52.264;9.632;2023-03-21T06:38:35;12.73;;;10.30;;
15094;SDS011;7648;52.264;9.632;2023-03-21T06:42:38;15.20;;;10.30;;
15094;SDS011;7648;52.264;9.632;2023-03-21T06:46:45;17.07;;;10.03;;
15094;SDS011;7648;52.264;9.632;2023-03-21T06:50:51;14.80;;;10.80;;
15094;SDS011;7648;52.264;9.632;2023-03-21T06:54:56;13.37;;;11.07;;
15094;SDS011;7648;52.264;9.632;2023-03-21T06:58:59;16.00;;;9.50;;
15094;SDS011;7648;52.264;9.632;2023-03-21T07:03:25;13.93;;;10.30;;
15094;SDS011;7648;52.264;9.632;2023-03-21T07:07:28;16.17;;;9.70;;
15094;SDS011;7648;52.264;9.632;2023-03-21T07:11:31;15.30;;;9.43;;
15094;SDS011;7648;52.264;9.632;2023-03-21T07:15:34;12.63;;;8.77;;
15094;SDS011;7648;52.264;9.632;2023-03-21T07:19:39;12.33;;;9.83;;
15094;SDS011;7648;52.264;9.632;2023-03-21T07:23:41;13.70;;;8.23;;
15094;SDS011;7648;52.264;9.632;2023-03-21T07:27:43;16.00;;;9.97;;
15094;SDS011;7648;52.264;9.632;2023-03-21T07:31:45;16.43;;;9.20;;
15094;SDS011;7648;52.264;9.632;2023-03-21T07:35:48;13.93;;;9.50;;
15094;SDS011;7648;52.264;9.632;2023-03-21T07:39:50;13.17;;;9.67;;
15094;SDS011;7648;52.264;9.632;2023-03-21T07:43:53;15.90;;;9.23;;
15094;SDS011;7648;52.264;9.632;2023-03-21T07:48:00;18.63;;;9.40;;
15094;SDS011;7648;52.264;9.632;2023-03-21T07:52:08;12.03;;;9.40;;
15094;SDS011;7648;52.264;9.632;2023-03-21T07:56:10;10.97;;;8.13;;
15094;SDS011;7648;52.264;9.632;2023-03-21T08:00:12;15.10;;;9.67;;
15094;SDS011;7648;52.264;9.632;2023-03-21T08:04:21;12.47;;;8.43;;
15094;SDS011;7648;52.264;9.632;2023-03-21T08:08:25;13.47;;;8.53;;
15094;SDS011;7648;52.264;9.632;2023-03-21T08:12:27;14.53;;;8.83;;
15094;SDS011;7648;52.264;9.632;2023-03-21T08:16:29;17.17;;;9.77;;
15094;SDS011;7648;52.264;9.632;2023-03-21T08:20:32;12.60;;;9.33;;
15094;SDS011;7648;52.264;9.632;2023-03-21T08:24:35;12.70;;;8.63;;
15094;SDS011;7648;52.264;9.632;2023-03-21T08:28:37;12.90;;;8.97;;
15094;SDS011;7648;52.264;9.632;2023-03-21T08:32:40;16.20;;;8.53;;
15094;SDS011;7648;52.264;9.632;2023-03-21T08:36:42;15.43;;;8.73;;
15094;SDS011;7648;52.264;9.632;2023-03-21T08:40:45;12.10;;;7.87;;
15094;SDS011;7648;52.264;9.632;2023-03-21T08:44:47;10.97;;;7.50;;
15094;SDS011;7648;52.264;9.632;2023-03-21T08:48:49;12.00;;;8.87;;
15094;SDS011;7648;52.264;9.632;2023-03-21T08:52:51;14.50;;;7.73;;
15094;SDS011;7648;52.264;9.632;2023-03-21T08:56:54;10.27;;;7.73;;
15094;SDS011;7648;52.264;9.632;2023-03-21T09:00:56;14.83;;;7.03;;
15094;SDS011;7648;52.264;9.632;2023-03-21T09:04:58;14.00;;;8.13;;
15094;SDS011;7648;52.264;9.632;2023-03-21T09:09:00;13.13;;;7.80;;
15094;SDS011;7648;52.264;9.632;2023-03-21T09:13:04;12.60;;;8.47;;
15094;SDS011;7648;52.264;9.632;2023-03-21T09:17:06;10.07;;;7.70;;
15094;SDS011;7648;52.264;9.632;2023-03-21T09:21:08;12.20;;;8.37;;
15094;SDS011;7648;52.264;9.632;2023-03-21T09:25:11;10.93;;;8.40;;
15094;SDS011;7648;52.264;9.632;2023-03-21T09:29:15;9.87;;;7.40;;
15094;SDS011;7648;52.264;9.632;2023-03-21T09:33:18;11.10;;;7.87;;
15094;SDS011;7648;52.264;9.632;2023-03-21T09:37:24;8.47;;;7.23;;
15094;SDS011;7648;52.264;9.632;2023-03-21T09:41:45;11.30;;;6.87;;
15094;SDS011;7648;52.264;9.632;2023-03-21T09:46:06;11.80;;;6.13;;
15094;SDS011;7648;52.264;9.632;2023-03-21T09:50:14;16.73;;;7.97;;
15094;SDS011;7648;52.264;9.632;2023-03-21T09:54:20;12.00;;;7.33;;
15094;SDS011;7648;52.264;9.632;2023-03-21T09:58:27;12.47;;;7.23;;
15094;SDS011;7648;52.264;9.632;2023-03-21T10:02:35;13.10;;;7.30;;
15094;SDS011;7648;52.264;9.632;2023-03-21T10:06:38;7.97;;;6.87;;
15094;SDS011;7648;52.264;9.632;2023-03-21T10:10:43;12.83;;;7.37;;
15094;SDS011;7648;52.264;9.632;2023-03-21T10:14:49;11.23;;;6.73;;
15094;SDS011;7648;52.264;9.632;2023-03-21T10:18:55;10.23;;;6.60;;
15094;SDS011;7648;52.264;9.632;2023-03-21T10:23:00;8.87;;;6.90;;
15094;SDS011;7648;52.264;9.632;2023-03-21T10:27:05;8.53;;;6.03;;
15094;SDS011;7648;52.264;9.632;2023-03-21T10:31:08;8.77;;;5.83;;
15094;SDS011;7648;52.264;9.632;2023-03-21T10:35:16;11.50;;;6.33;;
15094;SDS011;7648;52.264;9.632;2023-03-21T10:39:21;9.47;;;6.70;;
15094;SDS011;7648;52.264;9.632;2023-03-21T10:43:31;10.80;;;6.60;;
15094;SDS011;7648;52.264;9.632;2023-03-21T10:47:36;7.60;;;6.13;;
15094;SDS011;7648;52.264;9.632;2023-03-21T10:51:40;8.97;;;5.90;;
15094;SDS011;7648;52.264;9.632;2023-03-21T10:55:42;9.13;;;5.63;;
15094;SDS011;7648;52.264;9.632;2023-03-21T10:59:50;9.57;;;6.30;;
15094;SDS011;7648;52.264;9.632;2023-03-21T11:03:57;7.87;;;6.00;;
15094;SDS011;7648;52.264;9.632;2023-03-21T11:08:03;10.27;;;6.57;;
15094;SDS011;7648;52.264;9.632;2023-03-21T11:12:10;12.03;;;6.60;;
15094;SDS011;7648;52.264;9.632;2023-03-21T11:16:18;8.23;;;6.30;;
15094;SDS011;7648;52.264;9.632;2023-03-21T11:20:24;7.87;;;5.93;;
15094;SDS011;7648;52.264;9.632;2023-03-21T11:24:31;10.23;;;6.63;;
15094;SDS011;7648;52.264;9.632;2023-03-21T11:28:36;9.07;;;5.90;;
15094;SDS011;7648;52.264;9.632;2023-03-21T11:32:40;9.40;;;6.10;;
15094;SDS011;7648;52.264;9.632;2023-03-21T11:36:43;14.33;;;7.10;;
15094;SDS011;7648;52.264;9.632;2023-03-21T11:40:52;9.13;;;6.93;;
15094;SDS011;7648;52.264;9.632;2023-03-21T11:44:59;10.77;;;6.67;;
15094;SDS011;7648;52.264;9.632;2023-03-21T11:49:03;12.40;;;6.63;;
15094;SDS011;7648;52.264;9.632;2023-03-21T11:53:09;9.43;;;7.50;;
15094;SDS011;7648;52.264;9.632;2023-03-21T11:57:23;9.97;;;7.53;;
15094;SDS011;7648;52.264;9.632;2023-03-21T12:01:34;7.93;;;6.30;;
15094;SDS011;7648;52.264;9.632;2023-03-21T12:05:42;11.37;;;7.70;;
15094;SDS011;7648;52.264;9.632;2023-03-21T12:09:54;9.57;;;7.27;;
15094;SDS011;7648;52.264;9.632;2023-03-21T12:14:04;7.60;;;6.50;;
15094;SDS011;7648;52.264;9.632;2023-03-21T12:18:15;9.43;;;8.30;;
15094;SDS011;7648;52.264;9.632;2023-03-21T12:22:31;10.60;;;7.40;;
15094;SDS011;7648;52.264;9.632;2023-03-21T12:26:42;9.90;;;7.27;;
15094;SDS011;7648;52.264;9.632;2023-03-21T12:30:56;9.07;;;8.17;;
15094;SDS011;7648;52.264;9.632;2023-03-21T12:35:09;11.30;;;7.23;;
15094;SDS011;7648;52.264;9.632;2023-03-21T12:39:26;10.73;;;7.40;;
15094;SDS011;7648;52.264;9.632;2023-03-21T12:43:36;12.60;;;8.30;;
15094;SDS011;7648;52.264;9.632;2023-03-21T12:47:46;13.97;;;7.80;;
15094;SDS011;7648;52.264;9.632;2023-03-21T12:51:53;11.77;;;7.27;;
15094;SDS011;7648;52.264;9.632;2023-03-21T12:55:59;13.03;;;7.83;;
15094;SDS011;7648;52.264;9.632;2023-03-21T13:00:06;9.17;;;7.23;;
15094;SDS011;7648;52.264;9.632;2023-03-21T13:08:36;10.17;;;6.97;;
15094;SDS011;7648;52.264;9.632;2023-03-21T13:12:42;8.40;;;6.53;;
15094;SDS011;7648;52.264;9.632;2023-03-21T13:16:51;8.20;;;6.20;;
15094;SDS011;7648;52.264;9.632;2023-03-21T13:20:58;8.70;;;6.07;;
15094;SDS011;7648;52.264;9.632;2023-03-21T13:25:05;6.87;;;5.93;;
15094;SDS011;7648;52.264;9.632;2023-03-21T13:29:21;8.07;;;6.27;;
15094;SDS011;7648;52.264;9.632;2023-03-21T13:33:27;9.40;;;5.60;;
15094;SDS011;7648;52.264;9.632;2023-03-21T13:37:33;7.93;;;5.73;;
15094;SDS011;7648;52.264;9.632;2023-03-21T13:41:39;6.67;;;5.50;;
15094;SDS011;7648;52.264;9.632;2023-03-21T13:45:51;5.60;;;5.00;;
15094;SDS011;7648;52.264;9.632;2023-03-21T13:54:25;8.43;;;5.30;;
15094;SDS011;7648;52.264;9.632;2023-03-21T13:58:31;5.70;;;4.93;;
15094;SDS011;7648;52.264;9.632;2023-03-21T14:02:34;4.47;;;4.07;;
15094;SDS011;7648;52.264;9.632;2023-03-21T14:06:37;5.60;;;4.87;;
15094;SDS011;7648;52.264;9.632;2023-03-21T14:10:44;9.07;;;5.13;;
15094;SDS011;7648;52.264;9.632;2023-03-21T14:14:50;5.60;;;4.90;;
15094;SDS011;7648;52.264;9.632;2023-03-21T14:18:55;7.47;;;5.17;;
15094;SDS011;7648;52.264;9.632;2023-03-21T14:22:59;5.60;;;4.10;;
15094;SDS011;7648;52.264;9.632;2023-03-21T14:27:05;8.43;;;5.10;;
15094;SDS011;7648;52.264;9.632;2023-03-21T14:31:11;6.07;;;5.40;;
15094;SDS011;7648;52.264;9.632;2023-03-21T14:35:16;6.67;;;5.03;;
15094;SDS011;7648;52.264;9.632;2023-03-21T14:39:19;5.73;;;5.00;;
15094;SDS011;7648;52.264;9.632;2023-03-21T14:43:25;9.73;;;5.47;;
15094;SDS011;7648;52.264;9.632;2023-03-21T14:47:28;8.07;;;4.50;;
15094;SDS011;7648;52.264;9.632;2023-03-21T14:51:31;7.37;;;4.73;;
15094;SDS011;7648;52.264;9.632;2023-03-21T14:55:34;7.30;;;4.60;;
15094;SDS011;7648;52.264;9.632;2023-03-21T14:59:45;4.27;;;3.97;;
15094;SDS011;7648;52.264;9.632;2023-03-21T15:03:50;5.40;;;4.30;;
15094;SDS011;7648;52.264;9.632;2023-03-21T15:07:53;6.37;;;4.27;;
15094;SDS011;7648;52.264;9.632;2023-03-21T15:11:56;4.80;;;3.80;;
15094;SDS011;7648;52.264;9.632;2023-03-21T15:16:00;4.30;;;3.50;;
15094;SDS011;7648;52.264;9.632;2023-03-21T15:20:03;4.03;;;3.27;;
15094;SDS011;7648;52.264;9.632;2023-03-21T15:24:10;7.20;;;4.20;;
15094;SDS011;7648;52.264;9.632;2023-03-21T15:28:16;5.53;;;2.97;;
15094;SDS011;7648;52.264;9.632;2023-03-21T15:32:20;3.67;;;3.03;;
15094;SDS011;7648;52.264;9.632;2023-03-21T15:36:25;3.53;;;3.23;;
15094;SDS011;7648;52.264;9.632;2023-03-21T15:40:29;5.23;;;4.70;;
15094;SDS011;7648;52.264;9.632;2023-03-21T15:44:33;4.23;;;3.60;;
15094;SDS011;7648;52.264;9.632;2023-03-21T15:48:37;3.67;;;3.37;;
15094;SDS011;7648;52.264;9.632;2023-03-21T15:52:38;4.00;;;3.17;;
15094;SDS011;7648;52.264;9.632;2023-03-21T15:56:41;3.60;;;3.17;;
15094;SDS011;7648;52.264;9.632;2023-03-21T16:00:46;3.37;;;3.07;;
15094;SDS011;7648;52.264;9.632;2023-03-21T16:04:55;3.93;;;3.13;;
15094;SDS011;7648;52.264;9.632;2023-03-21T16:09:03;4.60;;;3.77;;
15094;SDS011;7648;52.264;9.632;2023-03-21T16:13:10;5.27;;;3.80;;
15094;SDS011;7648;52.264;9.632;2023-03-21T16:17:16;3.90;;;3.50;;
15094;SDS011;7648;52.264;9.632;2023-03-21T16:21:28;5.47;;;4.77;;
15094;SDS011;7648;52.264;9.632;2023-03-21T16:25:32;5.97;;;4.87;;
15094;SDS011;7648;52.264;9.632;2023-03-21T16:29:34;4.13;;;3.70;;
15094;SDS011;7648;52.264;9.632;2023-03-21T16:33:36;4.67;;;4.27;;
15094;SDS011;7648;52.264;9.632;2023-03-21T16:37:40;3.40;;;3.13;;
15094;SDS011;7648;52.264;9.632;2023-03-21T16:41:42;4.40;;;4.00;;
15094;SDS011;7648;52.264;9.632;2023-03-21T16:45:44;5.83;;;4.30;;
15094;SDS011;7648;52.264;9.632;2023-03-21T16:49:46;4.03;;;3.63;;
15094;SDS011;7648;52.264;9.632;2023-03-21T16:53:49;2.93;;;2.80;;
15094;SDS011;7648;52.264;9.632;2023-03-21T16:57:52;3.40;;;3.10;;
15094;SDS011;7648;52.264;9.632;2023-03-21T17:01:54;3.57;;;3.20;;
15094;SDS011;7648;52.264;9.632;2023-03-21T17:05:56;3.33;;;3.03;;
15094;SDS011;7648;52.264;9.632;2023-03-21T17:10:00;2.67;;;2.47;;
15094;SDS011;7648;52.264;9.632;2023-03-21T17:14:02;3.10;;;2.90;;
15094;SDS011;7648;52.264;9.632;2023-03-21T17:18:04;3.60;;;3.30;;
15094;SDS011;7648;52.264;9.632;2023-03-21T17:22:06;2.97;;;2.77;;
15094;SDS011;7648;52.264;9.632;2023-03-21T17:26:11;3.27;;;2.70;;
15094;SDS011;7648;52.264;9.632;2023-03-21T17:30:21;4.03;;;3.20;;
15094;SDS011;7648;52.264;9.632;2023-03-21T17:34:24;3.20;;;2.30;;
15094;SDS011;7648;52.264;9.632;2023-03-21T17:38:26;3.03;;;2.73;;
15094;SDS011;7648;52.264;9.632;2023-03-21T17:42:31;2.87;;;2.67;;
15094;SDS011;7648;52.264;9.632;2023-03-21T17:46:34;4.17;;;2.90;;
15094;SDS011;7648;52.264;9.632;2023-03-21T17:50:37;3.27;;;2.67;;
15094;SDS011;7648;52.264;9.632;2023-03-21T17:54:39;2.57;;;2.37;;
15094;SDS011;7648;52.264;9.632;2023-03-21T17:58:42;4.50;;;2.50;;
15094;SDS011;7648;52.264;9.632;2023-03-21T18:02:44;2.53;;;2.33;;
15094;SDS011;7648;52.264;9.632;2023-03-21T18:06:46;5.27;;;2.67;;
15094;SDS011;7648;52.264;9.632;2023-03-21T18:10:48;2.40;;;2.20;;
15094;SDS011;7648;52.264;9.632;2023-03-21T18:14:53;2.67;;;2.53;;
15094;SDS011;7648;52.264;9.632;2023-03-21T18:18:55;2.40;;;2.20;;
15094;SDS011;7648;52.264;9.632;2023-03-21T18:22:57;2.60;;;2.50;;
15094;SDS011;7648;52.264;9.632;2023-03-21T18:26:58;2.10;;;2.00;;
15094;SDS011;7648;52.264;9.632;2023-03-21T18:31:03;2.27;;;2.17;;
15094;SDS011;7648;52.264;9.632;2023-03-21T18:35:06;2.43;;;2.23;;
15094;SDS011;7648;52.264;9.632;2023-03-21T18:39:09;3.00;;;2.50;;
15094;SDS011;7648;52.264;9.632;2023-03-21T18:43:12;3.33;;;2.13;;
15094;SDS011;7648;52.264;9.632;2023-03-21T18:47:15;2.37;;;2.27;;
15094;SDS011;7648;52.264;9.632;2023-03-21T18:51:17;2.53;;;2.33;;
15094;SDS011;7648;52.264;9.632;2023-03-21T18:55:20;2.80;;;2.10;;
15094;SDS011;7648;52.264;9.632;2023-03-21T18:59:23;2.60;;;2.43;;
15094;SDS011;7648;52.264;9.632;2023-03-21T19:03:27;2.43;;;2.23;;
15094;SDS011;7648;52.264;9.632;2023-03-21T19:07:29;2.30;;;2.10;;
15094;SDS011;7648;52.264;9.632;2023-03-21T19:11:31;2.23;;;2.13;;
15094;SDS011;7648;52.264;9.632;2023-03-21T19:15:33;2.40;;;2.20;;
15094;SDS011;7648;52.264;9.632;2023-03-21T19:19:37;2.30;;;2.20;;
15094;SDS011;7648;52.264;9.632;2023-03-21T19:23:40;2.77;;;2.57;;
15094;SDS011;7648;52.264;9.632;2023-03-21T19:27:42;2.60;;;2.20;;
15094;SDS011;7648;52.264;9.632;2023-03-21T19:31:44;2.63;;;2.43;;
15094;SDS011;7648;52.264;9.632;2023-03-21T19:35:47;2.50;;;2.20;;
15094;SDS011;7648;52.264;9.632;2023-03-21T19:39:49;2.57;;;2.40;;
15094;SDS011;7648;52.264;9.632;2023-03-21T19:43:55;2.93;;;2.23;;
15094;SDS011;7648;52.264;9.632;2023-03-21T19:47:57;2.93;;;2.10;;
15094;SDS011;7648;52.264;9.632;2023-03-21T19:52:00;2.60;;;2.40;;
15094;SDS011;7648;52.264;9.632;2023-03-21T19:56:03;2.67;;;2.23;;
15094;SDS011;7648;52.264;9.632;2023-03-21T20:00:05;2.23;;;2.13;;
15094;SDS011;7648;52.264;9.632;2023-03-21T20:04:10;3.87;;;2.53;;
15094;SDS011;7648;52.264;9.632;2023-03-21T20:08:15;2.50;;;2.30;;
15094;SDS011;7648;52.264;9.632;2023-03-21T20:12:17;2.93;;;2.60;;
15094;SDS011;7648;52.264;9.632;2023-03-21T20:16:21;2.37;;;2.27;;
15094;SDS011;7648;52.264;9.632;2023-03-21T20:20:22;3.67;;;2.37;;
15094;SDS011;7648;52.264;9.632;2023-03-21T20:24:26;2.90;;;2.70;;
15094;SDS011;7648;52.264;9.632;2023-03-21T20:28:28;2.53;;;2.33;;
15094;SDS011;7648;52.264;9.632;2023-03-21T20:32:30;3.30;;;3.10;;
15094;SDS011;7648;52.264;9.632;2023-03-21T20:36:32;2.40;;;2.20;;
15094;SDS011;7648;52.264;9.632;2023-03-21T20:40:35;2.70;;;2.50;;
15094;SDS011;7648;52.264;9.632;2023-03-21T20:44:38;2.30;;;2.20;;
15094;SDS011;7648;52.264;9.632;2023-03-21T20:48:41;2.77;;;2.50;;
15094;SDS011;7648;52.264;9.632;2023-03-21T20:52:43;4.90;;;2.97;;
15094;SDS011;7648;52.264;9.632;2023-03-21T20:56:46;2.87;;;2.67;;
15094;SDS011;7648;52.264;9.632;2023-03-21T21:00:49;2.90;;;2.70;;
15094;SDS011;7648;52.264;9.632;2023-03-21T21:04:51;2.43;;;2.33;;
15094;SDS011;7648;52.264;9.632;2023-03-21T21:08:54;3.27;;;2.57;;
15094;SDS011;7648;52.264;9.632;2023-03-21T21:12:59;2.77;;;2.57;;
15094;SDS011;7648;52.264;9.632;2023-03-21T21:17:01;2.90;;;2.70;;
15094;SDS011;7648;52.264;9.632;2023-03-21T21:21:05;2.57;;;2.47;;
15094;SDS011;7648;52.264;9.632;2023-03-21T21:25:08;3.10;;;2.80;;
15094;SDS011;7648;52.264;9.632;2023-03-21T21:29:26;3.60;;;3.30;;
15094;SDS011;7648;52.264;9.632;2023-03-21T21:33:27;2.70;;;2.50;;
15094;SDS011;7648;52.264;9.632;2023-03-21T21:37:29;3.13;;;2.80;;
15094;SDS011;7648;52.264;9.632;2023-03-21T21:41:33;3.13;;;2.57;;
15094;SDS011;7648;52.264;9.632;2023-03-21T21:45:36;3.77;;;2.90;;
15094;SDS011;7648;52.264;9.632;2023-03-21T21:49:38;3.43;;;3.10;;
15094;SDS011;7648;52.264;9.632;2023-03-21T21:53:41;3.43;;;3.10;;
15094;SDS011;7648;52.264;9.632;2023-03-21T21:57:43;3.17;;;2.93;;
15094;SDS011;7648;52.264;9.632;2023-03-21T22:01:50;3.13;;;2.83;;
15094;SDS011;7648;52.264;9.632;2023-03-21T22:05:52;5.07;;;3.30;;
15094;SDS011;7648;52.264;9.632;2023-03-21T22:10:03;3.10;;;2.90;;
15094;SDS011;7648;52.264;9.632;2023-03-21T22:14:05;3.60;;;3.20;;
15094;SDS011;7648;52.264;9.632;2023-03-21T22:18:09;3.10;;;2.87;;
15094;SDS011;7648;52.264;9.632;2023-03-21T22:22:11;6.93;;;2.97;;
15094;SDS011;7648;52.264;9.632;2023-03-21T22:26:13;3.50;;;3.20;;
15094;SDS011;7648;52.264;9.632;2023-03-21T22:30:15;3.23;;;2.93;;
15094;SDS011;7648;52.264;9.632;2023-03-21T22:34:19;5.47;;;3.00;;
15094;SDS011;7648;52.264;9.632;2023-03-21T22:38:21;3.50;;;3.00;;
15094;SDS011;7648;52.264;9.632;2023-03-21T22:42:24;4.47;;;3.53;;
15094;SDS011;7648;52.264;9.632;2023-03-21T22:46:26;3.30;;;2.97;;
15094;SDS011;7648;52.264;9.632;2023-03-21T22:50:29;3.20;;;3.00;;
15094;SDS011;7648;52.264;9.632;2023-03-21T22:54:31;3.37;;;3.17;;
15094;SDS011;7648;52.264;9.632;2023-03-21T22:58:33;3.13;;;2.93;;
15094;SDS011;7648;52.264;9.632;2023-03-21T23:02:35;3.87;;;3.57;;
15094;SDS011;7648;52.264;9.632;2023-03-21T23:06:39;3.93;;;3.50;;
15094;SDS011;7648;52.264;9.632;2023-03-21T23:10:41;4.03;;;3.73;;
15094;SDS011;7648;52.264;9.632;2023-03-21T23:14:45;3.77;;;3.57;;
15094;SDS011;7648;52.264;9.632;2023-03-21T23:18:46;4.30;;;3.67;;
15094;SDS011;7648;52.264;9.632;2023-03-21T23:22:50;4.17;;;3.50;;
15094;SDS011;7648;52.264;9.632;2023-03-21T23:26:52;3.80;;;3.50;;
15094;SDS011;7648;52.264;9.632;2023-03-21T23:30:53;4.07;;;3.73;;
15094;SDS011;7648;52.264;9.632;2023-03-21T23:34:55;4.43;;;4.03;;
15094;SDS011;7648;52.264;9.632;2023-03-21T23:38:58;4.67;;;4.30;;
15094;SDS011;7648;52.264;9.632;2023-03-21T23:43:00;4.87;;;4.37;;
15094;SDS011;7648;52.264;9.632;2023-03-21T23:47:02;4.60;;;3.63;;
15094;SDS011;7648;52.264;9.632;2023-03-21T23:51:04;5.37;;;4.97;;
15094;SDS011;7648;52.264;9.632;2023-03-21T23:55:09;5.87;;;4.60;;
15094;SDS011;7648;52.264;9.632;2023-03-21T23:59:10;5.00;;;4.60;;
